createdAt,value
2022-09-28T00:06:49.921Z,97733.61
2022-09-28T00:16:55.651Z,97717.73
2022-09-28T00:27:03.171Z,97714.52
2022-09-28T00:37:14.184Z,97715.45
2022-09-28T00:47:32.837Z,97709.86
2022-09-28T00:57:45.706Z,97710.50
2022-09-28T01:07:56.212Z,97711.28
2022-09-28T01:18:14.103Z,97705.93
2022-09-28T01:28:21.877Z,97699.94
2022-09-28T01:38:30.891Z,97700.20
2022-09-28T01:48:42.636Z,97690.80
2022-09-28T01:58:54.382Z,97692.27
2022-09-28T02:09:05.034Z,97689.77
2022-09-28T02:19:12.872Z,97692.17
2022-09-28T02:29:17.423Z,97698.84
2022-09-28T02:39:23.432Z,97712.02
2022-09-28T02:49:36.110Z,97703.17
2022-09-28T02:59:55.099Z,97715.66
2022-09-28T03:10:06.743Z,97723.20
2022-09-28T03:20:13.491Z,97736.77
2022-09-28T03:30:19.713Z,97733.50
2022-09-28T03:40:25.844Z,97740.05
2022-09-28T03:50:31.913Z,97739.80
2022-09-28T04:00:38.841Z,97738.81
2022-09-28T04:10:44.491Z,97734.73
2022-09-28T04:20:59.337Z,97735.92
2022-09-28T04:31:05.049Z,97737.81
2022-09-28T04:41:12.016Z,97730.69
2022-09-28T04:51:17.722Z,97728.66
2022-09-28T05:01:24.403Z,97736.41
2022-09-28T05:11:30.125Z,97745.28
2022-09-28T05:21:35.789Z,97749.04
2022-09-28T05:31:41.485Z,97742.33
2022-09-28T05:41:47.177Z,97742.48
2022-09-28T05:51:52.808Z,97739.55
2022-09-28T06:01:58.673Z,97739.42
2022-09-28T06:12:04.531Z,97731.77
2022-09-28T06:22:10.117Z,97722.16
2022-09-28T06:32:15.708Z,97718.87
2022-09-28T06:42:21.687Z,97720.81
2022-09-28T06:52:27.308Z,97722.05
2022-09-28T07:02:33.171Z,97717.46
2022-09-28T07:12:40.621Z,97721.27
2022-09-28T07:22:48.388Z,97727.31
2022-09-28T07:32:54.086Z,97735.23
2022-09-28T07:43:07.036Z,97727.77
2022-09-28T07:53:12.694Z,97721.89
2022-09-28T08:03:19.758Z,97723.30
2022-09-28T08:13:27.305Z,97714.48
2022-09-28T08:23:33.144Z,97703.50
2022-09-28T08:33:38.871Z,97704.77
2022-09-28T08:43:56.188Z,97702.15
2022-09-28T08:54:11.936Z,97700.77
2022-09-28T09:04:17.997Z,97705.17
2022-09-28T09:14:31.118Z,97713.60
2022-09-28T09:24:46.487Z,97712.65
2022-09-28T09:35:08.699Z,97721.95
2022-09-28T09:45:27.547Z,97728.79
2022-09-28T09:55:40.766Z,97720.02
2022-09-28T10:05:49.284Z,97725.73
2022-09-28T10:15:55.488Z,97729.67
2022-09-28T10:26:07.955Z,97733.36
2022-09-28T10:36:13.851Z,97726.84
2022-09-28T10:46:25.366Z,97735.27
2022-09-28T10:56:37.139Z,97733.55
2022-09-28T11:06:43.050Z,97734.23
2022-09-28T11:16:48.841Z,97734.45
2022-09-28T11:26:57.563Z,97734.79
2022-09-28T11:37:23.580Z,97737.36
2022-09-28T11:47:47.213Z,97729.36
2022-09-28T11:58:01.464Z,97724.34
2022-09-28T12:08:15.136Z,97721.29
2022-09-28T12:18:25.385Z,97716.73
2022-09-28T12:28:39.314Z,97710.42
2022-09-28T12:39:18.017Z,97718.25
2022-09-28T12:50:27.148Z,97709.58
2022-09-28T13:00:06.863Z,97706.08
2022-09-28T13:10:24.591Z,97691.11
2022-09-28T13:20:43.244Z,97682.73
2022-09-28T13:30:51.407Z,97673.26
2022-09-28T13:41:18.693Z,97676.79
2022-09-28T13:51:34.466Z,97671.86
2022-09-28T14:01:43.878Z,97687.48
2022-09-28T14:11:59.265Z,97687.71
2022-09-28T14:22:20.718Z,97681.20
2022-09-28T14:32:36.188Z,97679.89
2022-09-28T14:42:41.901Z,97676.80
2022-09-28T14:52:51.562Z,97670.13
2022-09-28T15:03:01.104Z,97674.70
2022-09-28T15:13:18.858Z,97676.52
2022-09-28T15:23:34.633Z,97690.27
2022-09-28T15:34:01.189Z,97691.98
2022-09-28T15:44:29.921Z,97696.73
2022-09-28T15:54:43.244Z,97676.85
2022-09-28T16:04:51.799Z,97668.73
2022-09-28T16:14:59.503Z,97682.25
2022-09-28T16:25:05.617Z,97690.38
2022-09-28T16:35:25.458Z,97706.46
2022-09-28T16:45:31.453Z,97712.23
2022-09-28T16:55:40.978Z,97712.10
2022-09-28T17:05:48.845Z,97708.21
2022-09-28T17:15:54.563Z,97703.48
2022-09-28T17:26:02.130Z,97707.02
2022-09-28T17:36:14.229Z,97704.73
2022-09-28T17:46:28.288Z,97692.73
2022-09-28T17:56:34.296Z,97693.91
2022-09-28T18:06:44.369Z,97692.86
2022-09-28T18:16:51.291Z,97699.95
2022-09-28T18:26:57.151Z,97703.47
2022-09-28T18:37:03.282Z,97713.59
2022-09-28T18:47:09.233Z,97716.47
2022-09-28T18:57:15.307Z,97720.06
2022-09-28T19:07:21.407Z,97726.48
2022-09-28T19:17:27.349Z,97730.88
2022-09-28T19:27:33.179Z,97742.59
2022-09-28T19:37:39.461Z,97752.91
2022-09-28T19:47:45.291Z,97759.47
2022-09-28T19:57:51.146Z,97764.11
2022-09-28T20:07:56.819Z,97770.20
2022-09-28T20:18:02.620Z,97774.88
2022-09-28T20:28:08.448Z,97775.38
2022-09-28T20:38:14.367Z,97785.16
2022-09-28T20:48:20.186Z,97783.52
2022-09-28T20:58:26.057Z,97799.30
2022-09-28T21:08:32.069Z,97815.64
2022-09-28T21:18:37.749Z,97816.33
2022-09-28T21:28:44.846Z,97821.93
2022-09-28T21:38:50.472Z,97825.63
2022-09-28T21:48:56.350Z,97826.73
2022-09-28T21:59:02.439Z,97839.88
2022-09-28T22:09:08.255Z,97845.23
2022-09-28T22:19:13.881Z,97849.52
2022-09-28T22:29:21.596Z,97851.20
2022-09-28T22:39:27.680Z,97863.82
2022-09-28T22:49:33.498Z,97870.73
2022-09-28T22:59:39.101Z,97893.63
2022-09-28T23:09:44.928Z,97896.13
2022-09-28T23:19:50.738Z,97900.58
2022-09-28T23:29:56.324Z,97900.05
2022-09-28T23:40:02.944Z,97906.96
2022-09-28T23:50:09.982Z,97907.90
